createdAt,value
2023-02-13T00:01:29.327Z,102155.78
2023-02-13T00:04:02.596Z,102147.25
2023-02-13T00:06:31.408Z,102151.66
2023-02-13T00:08:59.942Z,102143.91
2023-02-13T00:11:28.406Z,102143.09
2023-02-13T00:13:56.815Z,102139.75
2023-02-13T00:16:25.203Z,102132.88
2023-02-13T00:18:53.615Z,102141.56
2023-02-13T00:21:23.437Z,102133.78
2023-02-13T00:23:51.861Z,102141.56
2023-02-13T00:26:20.374Z,102128.63
2023-02-13T00:28:48.897Z,102130.44
2023-02-13T00:31:20.080Z,102129.41
2023-02-13T00:33:49.410Z,102126.72
2023-02-13T00:36:21.385Z,102120.63
2023-02-13T00:38:51.886Z,102128.38
2023-02-13T00:41:22.388Z,102127.34
2023-02-13T00:43:52.320Z,102125.66
2023-02-13T00:46:20.936Z,102118.81
2023-02-13T00:48:50.394Z,102118.81
2023-02-13T00:51:18.753Z,102111.97
2023-02-13T00:53:47.166Z,102118.03
2023-02-13T00:56:18.732Z,102118.03
2023-02-13T00:58:47.307Z,102119.72
2023-02-13T01:01:16.441Z,102121.41
2023-02-13T01:03:44.951Z,102118.03
2023-02-13T01:06:13.526Z,102129.28
2023-02-13T01:08:44.046Z,102118.13
2023-02-13T01:11:12.624Z,102122.53
2023-02-13T01:13:42.510Z,102124.22
2023-02-13T01:16:11.073Z,102121.41
2023-02-13T01:18:40.795Z,102125.81
2023-02-13T01:21:18.776Z,102121.53
2023-02-13T01:23:47.679Z,102120.50
2023-02-13T01:26:20.222Z,102122.31
2023-02-13T01:28:53.432Z,102116.22
2023-02-13T01:31:22.175Z,102126.56
2023-02-13T01:33:52.644Z,102124.00
2023-02-13T01:36:23.697Z,102117.91
2023-02-13T01:38:55.429Z,102120.50
2023-02-13T01:41:27.214Z,102121.53
2023-02-13T01:43:59.731Z,102122.31
2023-02-13T01:46:33.114Z,102122.31
2023-02-13T01:49:13.572Z,102121.41
2023-02-13T01:51:43.745Z,102124.75
2023-02-13T01:54:16.864Z,102114.41
2023-02-13T01:56:49.416Z,102117.00
2023-02-13T01:59:26.101Z,102110.91
2023-02-13T02:01:55.426Z,102115.06
2023-02-13T02:04:31.043Z,102115.97
2023-02-13T02:07:02.933Z,102106.41
2023-02-13T02:09:39.322Z,102100.34
2023-02-13T02:12:14.889Z,102102.13
2023-02-13T02:14:45.063Z,102103.84
2023-02-13T02:17:14.703Z,102108.88
2023-02-13T02:19:50.152Z,102102.78
2023-02-13T02:23:14.783Z,102106.16
2023-02-13T02:26:46.031Z,102093.75
2023-02-13T02:30:07.826Z,102099.53
2023-02-13T02:32:58.897Z,102108.97
2023-02-13T02:35:44.662Z,102103.03
2023-02-13T02:38:31.593Z,102099.69
2023-02-13T02:41:10.774Z,102100.59
2023-02-13T02:43:54.225Z,102098.94
2023-02-13T02:46:28.900Z,102092.84
2023-02-13T02:49:24.218Z,102097.84
2023-02-13T02:52:02.384Z,102099.38
2023-02-13T02:54:58.909Z,102092.44
2023-02-13T02:57:47.485Z,102088.81
2023-02-13T03:00:35.905Z,102087.91
2023-02-13T03:03:24.435Z,102087.00
2023-02-13T03:06:14.752Z,102091.25
2023-02-13T03:09:04.629Z,102102.50
2023-02-13T03:11:50.802Z,102088.56
2023-02-13T03:14:22.930Z,102096.19
2023-02-13T03:17:21.315Z,102103.28
2023-02-13T03:20:22.694Z,102096.19
2023-02-13T03:23:06.555Z,102094.25
2023-02-13T03:25:52.266Z,102083.91
2023-02-13T03:28:46.222Z,102092.56
2023-02-13T03:31:23.092Z,102100.09
2023-02-13T03:33:59.498Z,102102.66
2023-02-13T03:37:04.761Z,102111.19
2023-02-13T03:39:46.068Z,102106.66
2023-02-13T03:42:23.190Z,102103.16
2023-02-13T03:45:11.935Z,102102.25
2023-02-13T03:47:43.121Z,102104.84
2023-02-13T03:50:13.307Z,102111.81
2023-02-13T03:52:48.821Z,102108.31
2023-02-13T03:55:39.384Z,102113.41
2023-02-13T03:58:31.186Z,102111.59
2023-02-13T04:01:04.959Z,102104.59
2023-02-13T04:03:41.722Z,102117.53
2023-02-13T04:06:14.381Z,102112.34
2023-02-13T04:08:43.135Z,102119.19
2023-02-13T04:11:19.601Z,102116.75
2023-02-13T04:13:53.139Z,102120.25
2023-02-13T04:16:29.825Z,102112.50
2023-02-13T04:18:59.310Z,102112.59
2023-02-13T04:21:28.053Z,102113.41
2023-02-13T04:23:56.531Z,102108.09
2023-02-13T04:26:34.342Z,102106.41
2023-02-13T04:29:02.790Z,102103.69
2023-02-13T04:31:31.436Z,102099.44
2023-02-13T04:34:00.009Z,102106.41
2023-02-13T04:36:28.658Z,102101.25
2023-02-13T04:38:57.180Z,102105.50
2023-02-13T04:41:26.981Z,102104.59
2023-02-13T04:43:55.817Z,102109.00
2023-02-13T04:46:24.389Z,102096.06
2023-02-13T04:48:52.775Z,102102.00
2023-02-13T04:51:21.201Z,102097.63
2023-02-13T04:53:49.672Z,102095.81
2023-02-13T04:56:19.910Z,102092.44
2023-02-13T04:58:49.983Z,102095.81
2023-02-13T05:01:19.261Z,102092.31
2023-02-13T05:03:47.774Z,102094.03
2023-02-13T05:06:16.337Z,102093.13
2023-02-13T05:08:44.974Z,102097.38
2023-02-13T05:11:13.482Z,102092.06
2023-02-13T05:13:42.121Z,102095.56
2023-02-13T05:16:12.378Z,102098.28
2023-02-13T05:18:40.832Z,102097.25
2023-02-13T05:21:27.037Z,102092.84
2023-02-13T05:23:55.458Z,102089.34
2023-02-13T05:26:23.748Z,102092.69
2023-02-13T05:29:09.552Z,102088.59
2023-02-13T05:31:39.582Z,102086.75
2023-02-13T05:34:08.192Z,102084.94
2023-02-13T05:36:36.666Z,102089.25
2023-02-13T05:39:05.816Z,102082.25
2023-02-13T05:41:34.323Z,102090.03
2023-02-13T05:44:02.884Z,102078.00
2023-02-13T05:46:31.367Z,102079.78
2023-02-13T05:49:03.838Z,102076.44
2023-02-13T05:51:33.228Z,102075.53
2023-02-13T05:54:01.680Z,102084.19
2023-02-13T05:56:30.531Z,102075.53
2023-02-13T05:58:59.058Z,102086.75
2023-02-13T06:01:27.437Z,102084.09
2023-02-13T06:03:58.477Z,102084.94
2023-02-13T06:06:29.216Z,102092.69
2023-02-13T06:08:57.601Z,102086.53
2023-02-13T06:11:26.314Z,102088.06
2023-02-13T06:13:54.755Z,102087.94
2023-02-13T06:16:23.523Z,102087.81
2023-02-13T06:18:52.024Z,102091.19
2023-02-13T06:21:20.992Z,102081.75
2023-02-13T06:23:51.860Z,102080.69
2023-02-13T06:26:20.424Z,102089.22
2023-02-13T06:28:49.403Z,102082.25
2023-02-13T06:31:17.909Z,102084.72
2023-02-13T06:33:46.338Z,102088.84
2023-02-13T06:36:14.735Z,102084.59
2023-02-13T06:38:43.077Z,102077.59
2023-02-13T06:41:12.874Z,102078.38
2023-02-13T06:43:41.508Z,102081.75
2023-02-13T06:46:10.443Z,102081.63
2023-02-13T06:48:39.030Z,102090.13
2023-02-13T06:51:07.783Z,102078.75
2023-02-13T06:53:36.568Z,102084.72
2023-02-13T06:56:07.039Z,102082.78
2023-02-13T06:58:36.898Z,102084.47
2023-02-13T07:01:05.788Z,102079.16
2023-02-13T07:03:34.416Z,102082.41
2023-02-13T07:06:02.934Z,102083.31
2023-02-13T07:08:31.382Z,102087.41
2023-02-13T07:10:59.881Z,102093.34
2023-02-13T07:13:28.344Z,102092.34
2023-02-13T07:16:02.160Z,102094.78
2023-02-13T07:18:30.672Z,102094.66
2023-02-13T07:20:59.993Z,102098.00
2023-02-13T07:23:28.820Z,102098.00
2023-02-13T07:26:00.227Z,102101.50
2023-02-13T07:28:29.906Z,102098.00
2023-02-13T07:31:05.115Z,102093.75
2023-02-13T07:33:33.739Z,102097.09
2023-02-13T07:36:03.669Z,102102.25
2023-02-13T07:38:33.156Z,102097.09
2023-02-13T07:41:01.826Z,102097.88
2023-02-13T07:43:31.318Z,102106.50
2023-02-13T07:46:01.923Z,102103.06
2023-02-13T07:48:31.774Z,102110.81
2023-02-13T07:51:03.001Z,102104.72
2023-02-13T07:53:31.810Z,102115.97
2023-02-13T07:56:00.655Z,102115.69
2023-02-13T07:58:28.995Z,102119.81
2023-02-13T08:00:57.504Z,102128.34
2023-02-13T08:03:27.296Z,102123.28
2023-02-13T08:05:55.869Z,102124.19
2023-02-13T08:08:24.445Z,102128.59
2023-02-13T08:11:10.644Z,102124.50
2023-02-13T08:13:39.289Z,102132.34
2023-02-13T08:16:08.245Z,102133.25
2023-02-13T08:18:38.012Z,102130.81
2023-02-13T08:21:06.951Z,102126.53
2023-02-13T08:23:35.347Z,102125.78
2023-02-13T08:26:04.154Z,102130.19
2023-02-13T08:28:32.653Z,102121.38
2023-02-13T08:31:01.169Z,102124.72
2023-02-13T08:33:29.567Z,102122.91
2023-02-13T08:35:59.535Z,102127.06
2023-02-13T08:38:28.037Z,102129.66
2023-02-13T08:40:59.158Z,102134.81
2023-02-13T08:43:27.950Z,102134.81
2023-02-13T08:45:59.701Z,102131.47
2023-02-13T08:48:28.971Z,102130.81
2023-02-13T08:50:59.332Z,102119.84
2023-02-13T08:53:27.909Z,102126.94
2023-02-13T08:55:58.043Z,102124.63
2023-02-13T08:58:27.123Z,102123.72
2023-02-13T09:00:55.974Z,102123.72
2023-02-13T09:03:24.696Z,102118.56
2023-02-13T09:05:53.195Z,102118.03
2023-02-13T09:08:24.364Z,102122.56
2023-02-13T09:10:58.927Z,102122.94
2023-02-13T09:13:28.346Z,102107.69
2023-02-13T09:16:01.432Z,102114.28
2023-02-13T09:18:30.334Z,102118.94
2023-02-13T09:21:01.590Z,102115.72
2023-02-13T09:23:35.193Z,102122.03
2023-02-13T09:26:06.269Z,102112.88
2023-02-13T09:28:36.499Z,102121.78
2023-02-13T09:31:07.781Z,102115.31
2023-02-13T09:33:36.951Z,102125.16
2023-02-13T09:36:06.908Z,102109.88
2023-02-13T09:38:36.872Z,102108.59
2023-02-13T09:41:09.247Z,102108.97
2023-02-13T09:43:46.371Z,102119.59
2023-02-13T09:46:20.327Z,102106.16
2023-02-13T09:48:53.488Z,102112.59
2023-02-13T09:51:25.651Z,102114.66
2023-02-13T09:53:59.356Z,102121.13
2023-02-13T09:56:41.812Z,102116.34
2023-02-13T09:59:31.134Z,102112.31
2023-02-13T10:02:04.353Z,102122.91
2023-02-13T10:04:40.371Z,102115.25
2023-02-13T10:07:22.916Z,102114.34
2023-02-13T10:10:02.594Z,102119.03
2023-02-13T10:12:47.815Z,102117.34
2023-02-13T10:15:29.357Z,102122.88
2023-02-13T10:18:04.416Z,102121.44
2023-02-13T10:20:37.772Z,102121.81
2023-02-13T10:23:20.481Z,102124.66
2023-02-13T10:25:57.332Z,102108.44
2023-02-13T10:28:37.610Z,102121.78
2023-02-13T10:31:10.359Z,102118.66
2023-02-13T10:33:48.893Z,102120.72
2023-02-13T10:36:20.529Z,102119.38
2023-02-13T10:38:58.432Z,102116.28
2023-02-13T10:41:43.491Z,102109.44
2023-02-13T10:44:34.492Z,102119.25
2023-02-13T10:47:16.605Z,102112.59
2023-02-13T10:50:03.226Z,102101.06
2023-02-13T10:52:45.519Z,102111.00
2023-02-13T10:55:33.026Z,102105.28
2023-02-13T10:58:11.090Z,102098.66
2023-02-13T11:00:47.808Z,102102.41
2023-02-13T11:03:21.312Z,102090.59
2023-02-13T11:05:51.427Z,102096.03
2023-02-13T11:08:24.501Z,102087.72
2023-02-13T11:10:54.091Z,102080.09
2023-02-13T11:13:26.659Z,102087.28
2023-02-13T11:16:02.905Z,102080.56
2023-02-13T11:18:35.218Z,102074.69
2023-02-13T11:21:11.558Z,102069.78
2023-02-13T11:23:45.478Z,102075.84
2023-02-13T11:26:18.322Z,102065.50
2023-02-13T11:28:52.843Z,102070.91
2023-02-13T11:31:28.303Z,102064.28
2023-02-13T11:33:59.262Z,102062.81
2023-02-13T11:36:30.940Z,102061.47
2023-02-13T11:39:02.004Z,102062.72
2023-02-13T11:41:32.448Z,102064.53
2023-02-13T11:44:04.246Z,102061.38
2023-02-13T11:46:47.607Z,102052.06
2023-02-13T11:49:21.569Z,102043.50
2023-02-13T11:51:52.122Z,102045.31
2023-02-13T11:54:34.338Z,102043.19
2023-02-13T11:57:10.485Z,102036.97
2023-02-13T11:59:45.077Z,102043.41
2023-02-13T12:02:21.625Z,102035.19
2023-02-13T12:04:52.639Z,102026.84
2023-02-13T12:07:25.792Z,102031.50
2023-02-13T12:10:04.234Z,102020.69
2023-02-13T12:12:39.508Z,102028.66
2023-02-13T12:15:19.764Z,102018.63
2023-02-13T12:17:58.364Z,102017.97
2023-02-13T12:20:31.728Z,102021.59
2023-02-13T12:23:10.778Z,102014.94
2023-02-13T12:26:16.756Z,102009.97
2023-02-13T12:29:23.843Z,102005.03
2023-02-13T12:32:20.063Z,101998.03
2023-02-13T12:35:51.713Z,101990.38
2023-02-13T12:38:36.326Z,101980.91
2023-02-13T12:41:19.110Z,101981.34
2023-02-13T12:44:34.464Z,101974.03
2023-02-13T12:47:17.472Z,101977.72
2023-02-13T12:50:25.259Z,101980.78
2023-02-13T12:53:05.625Z,101974.09
2023-02-13T12:56:01.335Z,101972.84
2023-02-13T12:58:58.546Z,101966.28
2023-02-13T13:01:47.776Z,101963.22
2023-02-13T13:04:25.560Z,101959.19
2023-02-13T13:07:34.153Z,101955.75
2023-02-13T13:10:28.239Z,101957.03
2023-02-13T13:13:05.380Z,101954.81
2023-02-13T13:15:40.388Z,101949.97
2023-02-13T13:18:22.889Z,101945.31
2023-02-13T13:21:13.074Z,101949.13
2023-02-13T13:23:49.772Z,101946.75
2023-02-13T13:26:32.122Z,101944.47
2023-02-13T13:29:03.081Z,101938.69
2023-02-13T13:31:32.408Z,101945.94
2023-02-13T13:34:07.860Z,101941.72
2023-02-13T13:36:46.022Z,101941.84
2023-02-13T13:39:38.446Z,101935.06
2023-02-13T13:42:15.152Z,101935.06
2023-02-13T13:45:05.472Z,101938.66
2023-02-13T13:48:02.596Z,101929.16
2023-02-13T13:50:34.578Z,101930.19
2023-02-13T13:53:20.265Z,101925.31
2023-02-13T13:56:11.471Z,101927.31
2023-02-13T13:58:45.850Z,101922.34
2023-02-13T14:01:25.164Z,101927.84
2023-02-13T14:03:55.498Z,101924.34
2023-02-13T14:06:26.863Z,101918.53
2023-02-13T14:09:26.755Z,101919.56
2023-02-13T14:11:56.562Z,101913.44
2023-02-13T14:14:55.211Z,101920.34
2023-02-13T14:17:52.942Z,101917.56
2023-02-13T14:20:30.159Z,101906.03
2023-02-13T14:23:07.985Z,101907.84
2023-02-13T14:25:39.132Z,101914.16
2023-02-13T14:28:08.159Z,101904.88
2023-02-13T14:30:40.442Z,101907.75
2023-02-13T14:33:25.606Z,101907.88
2023-02-13T14:36:03.651Z,101909.56
2023-02-13T14:38:32.849Z,101906.84
2023-02-13T14:41:04.064Z,101906.19
2023-02-13T14:43:40.419Z,101902.78
2023-02-13T14:46:20.785Z,101898.50
2023-02-13T14:48:58.453Z,101896.81
2023-02-13T14:51:35.957Z,101901.41
2023-02-13T14:54:13.412Z,101893.72
2023-02-13T14:56:46.414Z,101899.59
2023-02-13T14:59:18.852Z,101902.00
2023-02-13T15:01:53.007Z,101894.09
2023-02-13T15:04:28.492Z,101896.69
2023-02-13T15:06:59.135Z,101893.19
2023-02-13T15:09:38.745Z,101900.97
2023-02-13T15:12:27.649Z,101898.28
2023-02-13T15:14:56.209Z,101889.56
2023-02-13T15:17:29.893Z,101894.88
2023-02-13T15:20:06.056Z,101890.59
2023-02-13T15:22:37.253Z,101890.59
2023-02-13T15:25:09.485Z,101886.19
2023-02-13T15:27:44.042Z,101893.19
2023-02-13T15:30:24.459Z,101888.78
2023-02-13T15:32:58.093Z,101886.97
2023-02-13T15:35:30.939Z,101879.00
2023-02-13T15:37:59.976Z,101878.88
2023-02-13T15:40:31.844Z,101875.38
2023-02-13T15:43:03.189Z,101877.97
2023-02-13T15:45:31.982Z,101878.75
2023-02-13T15:48:00.533Z,101879.56
2023-02-13T15:50:33.175Z,101886.38
2023-02-13T15:53:05.022Z,101882.75
2023-02-13T15:55:36.587Z,101876.66
2023-02-13T15:58:06.648Z,101878.34
2023-02-13T16:00:41.610Z,101882.66
2023-02-13T16:03:17.677Z,101880.75
2023-02-13T16:05:47.866Z,101885.84
2023-02-13T16:08:35.409Z,101880.47
2023-02-13T16:11:30.440Z,101877.63
2023-02-13T16:14:24.791Z,101873.84
2023-02-13T16:16:57.044Z,101867.63
2023-02-13T16:19:31.082Z,101883.22
2023-02-13T16:22:06.060Z,101883.13
2023-02-13T16:24:35.025Z,101877.72
2023-02-13T16:27:03.624Z,101879.31
2023-02-13T16:29:33.690Z,101878.41
2023-02-13T16:32:14.876Z,101877.25
2023-02-13T16:34:43.576Z,101874.34
2023-02-13T16:37:32.291Z,101873.25
2023-02-13T16:40:40.306Z,101882.44
2023-02-13T16:43:45.944Z,101877.78
2023-02-13T16:46:37.239Z,101875.78
2023-02-13T16:49:22.368Z,101881.56
2023-02-13T16:51:56.211Z,101874.47
2023-02-13T16:54:30.530Z,101875.38
2023-02-13T16:57:03.454Z,101883.16
2023-02-13T16:59:49.695Z,101880.38
2023-02-13T17:02:23.447Z,101887.13
2023-02-13T17:04:55.362Z,101893.91
2023-02-13T17:07:27.259Z,101899.09
2023-02-13T17:10:02.429Z,101901.59
2023-02-13T17:12:33.142Z,101902.41
2023-02-13T17:15:01.630Z,101904.09
2023-02-13T17:17:33.562Z,101905.78
2023-02-13T17:20:04.094Z,101913.38
2023-02-13T17:22:37.046Z,101914.22
2023-02-13T17:25:08.617Z,101916.75
2023-02-13T17:27:37.020Z,101911.31
2023-02-13T17:30:07.478Z,101908.66
2023-02-13T17:32:38.409Z,101922.41
2023-02-13T17:35:07.380Z,101919.56
2023-02-13T17:37:35.762Z,101914.19
2023-02-13T17:40:04.177Z,101910.69
2023-02-13T17:42:32.736Z,101918.34
2023-02-13T17:45:01.254Z,101922.53
2023-02-13T17:47:31.075Z,101917.25
2023-02-13T17:50:09.629Z,101923.34
2023-02-13T17:52:39.615Z,101916.09
2023-02-13T17:55:17.192Z,101920.38
2023-02-13T17:57:45.961Z,101923.69
2023-02-13T18:00:15.175Z,101928.88
2023-02-13T18:02:43.959Z,101919.09
2023-02-13T18:05:13.892Z,101925.06
2023-02-13T18:07:45.143Z,101920.41
2023-02-13T18:10:18.021Z,101920.41
2023-02-13T18:12:48.448Z,101922.03
2023-02-13T18:15:18.053Z,101923.59
2023-02-13T18:17:47.671Z,101918.22
2023-02-13T18:20:19.942Z,101921.59
2023-02-13T18:22:50.553Z,101915.28
2023-02-13T18:25:20.169Z,101923.84
2023-02-13T18:27:49.144Z,101926.31
2023-02-13T18:30:21.113Z,101926.13
2023-02-13T18:32:53.916Z,101924.28
2023-02-13T18:35:24.743Z,101926.75
2023-02-13T18:37:53.187Z,101930.81
2023-02-13T18:40:22.480Z,101919.31
2023-02-13T18:42:52.322Z,101928.78
2023-02-13T18:45:20.991Z,101930.38
2023-02-13T18:47:49.389Z,101924.94
2023-02-13T18:50:17.960Z,101925.72
2023-02-13T18:52:47.948Z,101923.97
2023-02-13T18:55:16.617Z,101927.22
2023-02-13T18:57:45.568Z,101923.72
2023-02-13T19:00:16.572Z,101932.97
2023-02-13T19:02:45.381Z,101924.16
2023-02-13T19:05:14.008Z,101923.06
2023-02-13T19:07:42.454Z,101922.25
2023-02-13T19:10:14.769Z,101924.75
2023-02-13T19:12:43.261Z,101927.22
2023-02-13T19:15:11.854Z,101934.88
2023-02-13T19:17:40.253Z,101932.19
2023-02-13T19:20:10.926Z,101931.94
2023-02-13T19:22:39.527Z,101920.56
2023-02-13T19:25:08.730Z,101928.25
2023-02-13T19:27:39.405Z,101924.50
2023-02-13T19:30:11.812Z,101927.91
2023-02-13T19:32:40.528Z,101924.03
2023-02-13T19:35:09.340Z,101922.34
2023-02-13T19:37:43.736Z,101917.09
2023-02-13T19:40:14.460Z,101920.56
2023-02-13T19:42:44.311Z,101921.38
2023-02-13T19:45:12.739Z,101922.03
2023-02-13T19:47:42.516Z,101920.22
2023-02-13T19:50:12.050Z,101915.72
2023-02-13T19:52:40.507Z,101920.00
2023-02-13T19:55:09.408Z,101920.66
2023-02-13T19:57:37.749Z,101916.25
2023-02-13T20:00:10.432Z,101920.56
2023-02-13T20:02:42.179Z,101922.00
2023-02-13T20:05:11.194Z,101923.59
2023-02-13T20:07:39.704Z,101921.81
2023-02-13T20:10:10.724Z,101920.91
2023-02-13T20:12:39.289Z,101920.66
2023-02-13T20:15:10.468Z,101925.81
2023-02-13T20:17:39.264Z,101927.44
2023-02-13T20:20:12.572Z,101920.44
2023-02-13T20:22:41.408Z,101936.75
2023-02-13T20:25:10.529Z,101915.00
2023-02-13T20:27:43.126Z,101924.38
2023-02-13T20:30:16.869Z,101912.31
2023-02-13T20:32:45.312Z,101908.59
2023-02-13T20:35:16.661Z,101919.72
2023-02-13T20:37:46.044Z,101917.03
2023-02-13T20:40:15.452Z,101911.63
2023-02-13T20:42:43.799Z,101908.94
2023-02-13T20:45:13.937Z,101912.31
2023-02-13T20:47:43.024Z,101908.69
2023-02-13T20:50:11.988Z,101905.06
2023-02-13T20:52:40.974Z,101906.66
2023-02-13T20:55:10.141Z,101904.06
2023-02-13T20:57:38.654Z,101913.41
2023-02-13T21:00:12.055Z,101898.38
2023-02-13T21:02:42.197Z,101909.53
2023-02-13T21:05:10.911Z,101908.50
2023-02-13T21:07:39.575Z,101908.50
2023-02-13T21:10:09.218Z,101906.47
2023-02-13T21:12:37.731Z,101912.41
2023-02-13T21:15:06.746Z,101914.03
2023-02-13T21:17:35.307Z,101910.41
2023-02-13T21:20:06.886Z,101915.56
2023-02-13T21:22:35.397Z,101923.22
2023-02-13T21:25:04.586Z,101917.03
2023-02-13T21:27:32.983Z,101913.28
2023-02-13T21:30:01.728Z,101917.56
2023-02-13T21:32:30.208Z,101931.19
2023-02-13T21:34:58.975Z,101927.69
2023-02-13T21:37:30.486Z,101921.63
2023-02-13T21:39:59.103Z,101928.34
2023-02-13T21:42:27.540Z,101914.50
2023-02-13T21:44:56.149Z,101922.06
2023-02-13T21:47:24.617Z,101922.06
2023-02-13T21:49:53.211Z,101912.34
2023-02-13T21:52:21.959Z,101912.34
2023-02-13T21:54:51.757Z,101914.94
2023-02-13T21:57:20.226Z,101909.53
2023-02-13T21:59:48.702Z,101907.72
2023-02-13T22:02:17.151Z,101914.47
2023-02-13T22:04:45.794Z,101907.38
2023-02-13T22:07:14.239Z,101909.84
2023-02-13T22:09:42.639Z,101919.28
2023-02-13T22:12:12.496Z,101912.19
2023-02-13T22:14:41.066Z,101913.97
2023-02-13T22:17:09.798Z,101920.88
2023-02-13T22:19:38.256Z,101919.06
2023-02-13T22:22:06.845Z,101920.75
2023-02-13T22:24:35.312Z,101918.16
2023-02-13T22:27:04.989Z,101912.97
2023-02-13T22:29:34.830Z,101921.66
2023-02-13T22:32:03.688Z,101913.75
2023-02-13T22:34:32.108Z,101917.91
2023-02-13T22:37:00.719Z,101903.97
2023-02-13T22:39:29.143Z,101915.09
2023-02-13T22:41:57.602Z,101913.28
2023-02-13T22:44:26.111Z,101907.06
2023-02-13T22:46:55.886Z,101918.31
2023-02-13T22:49:24.498Z,101909.56
2023-02-13T22:51:55.299Z,101919.91
2023-02-13T22:54:23.783Z,101910.22
2023-02-13T22:56:52.160Z,101919.78
2023-02-13T22:59:20.670Z,101913.69
2023-02-13T23:01:49.082Z,101916.28
2023-02-13T23:04:19.038Z,101916.16
2023-02-13T23:06:47.507Z,101922.94
2023-02-13T23:09:16.523Z,101918.53
2023-02-13T23:12:03.119Z,101917.50
2023-02-13T23:14:31.945Z,101912.88
2023-02-13T23:17:32.573Z,101915.31
2023-02-13T23:20:02.445Z,101908.13
2023-02-13T23:22:30.903Z,101910.56
2023-02-13T23:24:59.400Z,101907.84
2023-02-13T23:27:27.947Z,101911.13
2023-02-13T23:29:56.297Z,101901.56
2023-02-13T23:32:24.915Z,101914.25
2023-02-13T23:34:53.736Z,101916.72
2023-02-13T23:37:23.511Z,101921.75
2023-02-13T23:39:51.976Z,101925.13
2023-02-13T23:42:20.356Z,101914.69
2023-02-13T23:44:48.803Z,101914.53
2023-02-13T23:47:17.320Z,101910.94
2023-02-13T23:49:46.690Z,101900.59
2023-02-13T23:52:15.056Z,101899.44
2023-02-13T23:54:46.109Z,101901.91
2023-02-13T23:57:14.857Z,101895.81
2023-02-13T23:59:43.485Z,101895.69
